Adair, Illinois
Current Conditions -  °F | °C
As of 2:55 AM on Thursday 23 Oct 2014 (Local Time) from KMQB Reporting Station
Clear Clear  
Wind Chill: 34°   Ceiling: Unl
Heat Index: 38°   Visibility: 10mi
Dew Point: 36°   Wind: 6mph
Humidity: 89%   Direction: 160°SSE
Pressure: 30.21"   Gusts: NA
Location:  40.42°N, 90.5°W
Report Text: KMQB 230755Z AUTO 16005KT 10SM CLR 04/02 A3021 RMK AO2 T00360020
Loading
Personal Weather Stations






























Interactive Weather Map
Tropical Storm Tracking
New forecast layout! Learn more

10-Day Weather Forecast

Advertisements
Track Severe Weather on mobile